sensor_id;sensor_type;location;lat;lon;timestamp;temperature;humidity
4635;DHT22;2330;48.158;11.816;2023-08-08T00:01:09;12.70;98.50
4635;DHT22;2330;48.158;11.816;2023-08-08T00:03:36;12.60;98.50
4635;DHT22;2330;48.158;11.816;2023-08-08T00:06:03;12.60;98.50
4635;DHT22;2330;48.158;11.816;2023-08-08T00:08:30;12.50;98.50
4635;DHT22;2330;48.158;11.816;2023-08-08T00:10:57;12.50;98.50
4635;DHT22;2330;48.158;11.816;2023-08-08T00:13:23;12.60;98.50
4635;DHT22;2330;48.158;11.816;2023-08-08T00:15:50;12.50;98.50
4635;DHT22;2330;48.158;11.816;2023-08-08T00:18:17;12.50;98.50
4635;DHT22;2330;48.158;11.816;2023-08-08T00:20:44;12.50;98.50
4635;DHT22;2330;48.158;11.816;2023-08-08T00:23:10;12.40;98.50
4635;DHT22;2330;48.158;11.816;2023-08-08T00:25:37;12.40;98.50
4635;DHT22;2330;48.158;11.816;2023-08-08T00:28:04;12.40;98.50
4635;DHT22;2330;48.158;11.816;2023-08-08T00:30:31;12.40;98.50
4635;DHT22;2330;48.158;11.816;2023-08-08T00:32:57;12.40;98.50
4635;DHT22;2330;48.158;11.816;2023-08-08T00:35:24;12.30;98.50
4635;DHT22;2330;48.158;11.816;2023-08-08T00:37:51;12.40;98.50
4635;DHT22;2330;48.158;11.816;2023-08-08T00:40:18;12.40;98.50
4635;DHT22;2330;48.158;11.816;2023-08-08T00:42:45;12.40;98.50
4635;DHT22;2330;48.158;11.816;2023-08-08T00:45:11;12.40;98.50
4635;DHT22;2330;48.158;11.816;2023-08-08T00:47:38;12.30;98.50
4635;DHT22;2330;48.158;11.816;2023-08-08T00:50:05;12.30;98.50
4635;DHT22;2330;48.158;11.816;2023-08-08T00:52:33;12.30;98.50
4635;DHT22;2330;48.158;11.816;2023-08-08T00:55:00;12.30;98.50
4635;DHT22;2330;48.158;11.816;2023-08-08T00:57:28;12.20;98.50
4635;DHT22;2330;48.158;11.816;2023-08-08T00:59:55;12.30;98.50
4635;DHT22;2330;48.158;11.816;2023-08-08T01:02:21;12.30;98.50
4635;DHT22;2330;48.158;11.816;2023-08-08T01:04:48;12.40;98.50
4635;DHT22;2330;48.158;11.816;2023-08-08T01:07:47;12.30;98.50
4635;DHT22;2330;48.158;11.816;2023-08-08T01:10:22;12.30;98.50
4635;DHT22;2330;48.158;11.816;2023-08-08T01:12:55;12.30;98.50
4635;DHT22;2330;48.158;11.816;2023-08-08T01:15:23;12.40;98.50
4635;DHT22;2330;48.158;11.816;2023-08-08T01:17:51;12.40;98.50
4635;DHT22;2330;48.158;11.816;2023-08-08T01:20:18;12.30;98.50
4635;DHT22;2330;48.158;11.816;2023-08-08T01:22:58;12.30;98.50
4635;DHT22;2330;48.158;11.816;2023-08-08T01:25:26;12.30;98.50
4635;DHT22;2330;48.158;11.816;2023-08-08T01:27:53;12.30;98.50
4635;DHT22;2330;48.158;11.816;2023-08-08T01:30:20;12.30;98.50
4635;DHT22;2330;48.158;11.816;2023-08-08T01:32:47;12.30;98.50
4635;DHT22;2330;48.158;11.816;2023-08-08T01:35:14;12.30;98.50
4635;DHT22;2330;48.158;11.816;2023-08-08T01:37:50;12.20;98.50
4635;DHT22;2330;48.158;11.816;2023-08-08T01:40:19;12.20;98.50
4635;DHT22;2330;48.158;11.816;2023-08-08T01:42:47;12.20;98.50
4635;DHT22;2330;48.158;11.816;2023-08-08T01:45:15;12.10;98.50
4635;DHT22;2330;48.158;11.816;2023-08-08T01:47:42;12.10;98.50
4635;DHT22;2330;48.158;11.816;2023-08-08T01:50:09;12.10;98.50
4635;DHT22;2330;48.158;11.816;2023-08-08T01:52:36;12.10;98.50
4635;DHT22;2330;48.158;11.816;2023-08-08T01:55:03;12.10;98.50
4635;DHT22;2330;48.158;11.816;2023-08-08T01:57:30;12.10;98.50
4635;DHT22;2330;48.158;11.816;2023-08-08T01:59:57;12.00;98.50
4635;DHT22;2330;48.158;11.816;2023-08-08T02:02:23;11.90;98.50
4635;DHT22;2330;48.158;11.816;2023-08-08T02:04:50;11.80;98.50
4635;DHT22;2330;48.158;11.816;2023-08-08T02:07:17;11.80;98.50
4635;DHT22;2330;48.158;11.816;2023-08-08T02:09:44;11.80;98.50
4635;DHT22;2330;48.158;11.816;2023-08-08T02:12:12;11.80;98.50
4635;DHT22;2330;48.158;11.816;2023-08-08T02:14:39;11.70;98.50
4635;DHT22;2330;48.158;11.816;2023-08-08T02:17:06;11.60;98.50
4635;DHT22;2330;48.158;11.816;2023-08-08T02:19:32;11.60;98.50
4635;DHT22;2330;48.158;11.816;2023-08-08T02:21:59;11.60;98.50
4635;DHT22;2330;48.158;11.816;2023-08-08T02:24:26;11.50;98.50
4635;DHT22;2330;48.158;11.816;2023-08-08T02:26:53;11.50;98.50
4635;DHT22;2330;48.158;11.816;2023-08-08T02:29:20;11.50;98.50
4635;DHT22;2330;48.158;11.816;2023-08-08T02:31:47;11.40;98.50
4635;DHT22;2330;48.158;11.816;2023-08-08T02:34:13;11.40;98.50
4635;DHT22;2330;48.158;11.816;2023-08-08T02:36:40;11.40;98.50
4635;DHT22;2330;48.158;11.816;2023-08-08T02:39:07;11.30;98.50
4635;DHT22;2330;48.158;11.816;2023-08-08T02:41:34;11.20;98.50
4635;DHT22;2330;48.158;11.816;2023-08-08T02:44:01;11.20;98.50
4635;DHT22;2330;48.158;11.816;2023-08-08T02:46:27;11.10;98.50
4635;DHT22;2330;48.158;11.816;2023-08-08T02:48:54;11.10;98.50
4635;DHT22;2330;48.158;11.816;2023-08-08T02:51:21;11.00;98.50
4635;DHT22;2330;48.158;11.816;2023-08-08T02:53:48;10.90;98.50
4635;DHT22;2330;48.158;11.816;2023-08-08T02:56:14;10.90;98.50
4635;DHT22;2330;48.158;11.816;2023-08-08T02:58:41;10.90;98.50
4635;DHT22;2330;48.158;11.816;2023-08-08T03:01:08;10.80;98.50
4635;DHT22;2330;48.158;11.816;2023-08-08T03:03:35;10.80;98.50
4635;DHT22;2330;48.158;11.816;2023-08-08T03:06:03;10.80;98.50
4635;DHT22;2330;48.158;11.816;2023-08-08T03:08:30;10.80;98.50
4635;DHT22;2330;48.158;11.816;2023-08-08T03:10:57;10.70;98.50
4635;DHT22;2330;48.158;11.816;2023-08-08T03:13:23;10.70;98.50
4635;DHT22;2330;48.158;11.816;2023-08-08T03:15:50;10.70;98.50
4635;DHT22;2330;48.158;11.816;2023-08-08T03:18:17;10.70;98.50
4635;DHT22;2330;48.158;11.816;2023-08-08T03:20:43;10.60;98.50
4635;DHT22;2330;48.158;11.816;2023-08-08T03:23:10;10.60;98.50
4635;DHT22;2330;48.158;11.816;2023-08-08T03:25:37;10.60;98.50
4635;DHT22;2330;48.158;11.816;2023-08-08T03:28:04;10.50;98.50
4635;DHT22;2330;48.158;11.816;2023-08-08T03:30:31;10.50;98.50
4635;DHT22;2330;48.158;11.816;2023-08-08T03:32:58;10.50;98.50
4635;DHT22;2330;48.158;11.816;2023-08-08T03:35:24;10.50;98.50
4635;DHT22;2330;48.158;11.816;2023-08-08T03:37:51;10.50;98.50
4635;DHT22;2330;48.158;11.816;2023-08-08T03:40:18;10.60;98.50
4635;DHT22;2330;48.158;11.816;2023-08-08T03:42:45;10.50;98.50
4635;DHT22;2330;48.158;11.816;2023-08-08T03:45:12;10.50;98.50
4635;DHT22;2330;48.158;11.816;2023-08-08T03:47:38;10.50;98.50
4635;DHT22;2330;48.158;11.816;2023-08-08T03:50:07;10.50;98.50
4635;DHT22;2330;48.158;11.816;2023-08-08T03:52:34;10.50;98.50
4635;DHT22;2330;48.158;11.816;2023-08-08T03:55:02;10.60;98.50
4635;DHT22;2330;48.158;11.816;2023-08-08T03:57:30;10.60;98.50
4635;DHT22;2330;48.158;11.816;2023-08-08T03:59:57;10.70;98.50
4635;DHT22;2330;48.158;11.816;2023-08-08T04:02:24;10.80;98.50
4635;DHT22;2330;48.158;11.816;2023-08-08T04:04:51;10.80;98.50
4635;DHT22;2330;48.158;11.816;2023-08-08T04:07:18;10.80;98.50
4635;DHT22;2330;48.158;11.816;2023-08-08T04:09:45;10.70;98.50
4635;DHT22;2330;48.158;11.816;2023-08-08T04:12:12;10.70;98.50
4635;DHT22;2330;48.158;11.816;2023-08-08T04:14:38;10.80;98.50
4635;DHT22;2330;48.158;11.816;2023-08-08T04:17:05;10.80;98.50
4635;DHT22;2330;48.158;11.816;2023-08-08T04:19:32;10.90;98.50
4635;DHT22;2330;48.158;11.816;2023-08-08T04:21:59;10.90;98.50
4635;DHT22;2330;48.158;11.816;2023-08-08T04:24:26;11.00;98.50
4635;DHT22;2330;48.158;11.816;2023-08-08T04:26:53;11.10;98.50
4635;DHT22;2330;48.158;11.816;2023-08-08T04:29:20;11.20;98.50
4635;DHT22;2330;48.158;11.816;2023-08-08T04:31:46;11.20;98.50
4635;DHT22;2330;48.158;11.816;2023-08-08T04:34:13;11.20;98.50
4635;DHT22;2330;48.158;11.816;2023-08-08T04:36:40;11.20;98.50
4635;DHT22;2330;48.158;11.816;2023-08-08T04:39:07;11.20;98.50
4635;DHT22;2330;48.158;11.816;2023-08-08T04:41:33;11.20;98.50
4635;DHT22;2330;48.158;11.816;2023-08-08T04:44:00;11.30;98.50
4635;DHT22;2330;48.158;11.816;2023-08-08T04:46:27;11.30;98.50
4635;DHT22;2330;48.158;11.816;2023-08-08T04:48:54;11.30;98.50
4635;DHT22;2330;48.158;11.816;2023-08-08T04:51:21;11.30;98.50
4635;DHT22;2330;48.158;11.816;2023-08-08T04:53:48;11.30;98.50
4635;DHT22;2330;48.158;11.816;2023-08-08T04:56:15;11.30;98.50
4635;DHT22;2330;48.158;11.816;2023-08-08T04:58:42;11.30;98.50
4635;DHT22;2330;48.158;11.816;2023-08-08T05:01:08;11.40;98.50
4635;DHT22;2330;48.158;11.816;2023-08-08T05:03:38;11.40;98.50
4635;DHT22;2330;48.158;11.816;2023-08-08T05:06:05;11.50;98.50
4635;DHT22;2330;48.158;11.816;2023-08-08T05:08:32;11.60;98.50
4635;DHT22;2330;48.158;11.816;2023-08-08T05:10:58;11.70;98.50
4635;DHT22;2330;48.158;11.816;2023-08-08T05:13:26;11.70;98.50
4635;DHT22;2330;48.158;11.816;2023-08-08T05:15:53;11.80;98.50
4635;DHT22;2330;48.158;11.816;2023-08-08T05:18:19;11.80;98.50
4635;DHT22;2330;48.158;11.816;2023-08-08T05:20:46;11.90;98.50
4635;DHT22;2330;48.158;11.816;2023-08-08T05:23:13;12.00;98.50
4635;DHT22;2330;48.158;11.816;2023-08-08T05:25:40;12.10;98.50
4635;DHT22;2330;48.158;11.816;2023-08-08T05:28:07;12.20;98.50
4635;DHT22;2330;48.158;11.816;2023-08-08T05:30:35;12.20;98.50
4635;DHT22;2330;48.158;11.816;2023-08-08T05:33:01;12.30;98.50
4635;DHT22;2330;48.158;11.816;2023-08-08T05:35:28;12.40;98.50
4635;DHT22;2330;48.158;11.816;2023-08-08T05:37:55;12.40;98.50
4635;DHT22;2330;48.158;11.816;2023-08-08T05:40:22;12.50;98.50
4635;DHT22;2330;48.158;11.816;2023-08-08T05:42:49;12.50;98.50
4635;DHT22;2330;48.158;11.816;2023-08-08T05:45:16;12.60;98.50
4635;DHT22;2330;48.158;11.816;2023-08-08T05:47:42;12.70;98.50
4635;DHT22;2330;48.158;11.816;2023-08-08T05:50:09;12.80;98.50
4635;DHT22;2330;48.158;11.816;2023-08-08T05:52:36;12.80;98.50
4635;DHT22;2330;48.158;11.816;2023-08-08T05:55:03;12.90;98.50
4635;DHT22;2330;48.158;11.816;2023-08-08T05:57:30;13.00;98.50
4635;DHT22;2330;48.158;11.816;2023-08-08T05:59:57;13.10;98.50
4635;DHT22;2330;48.158;11.816;2023-08-08T06:02:25;13.20;98.50
4635;DHT22;2330;48.158;11.816;2023-08-08T06:04:52;13.40;98.50
4635;DHT22;2330;48.158;11.816;2023-08-08T06:07:19;13.50;98.50
4635;DHT22;2330;48.158;11.816;2023-08-08T06:09:46;13.60;98.50
4635;DHT22;2330;48.158;11.816;2023-08-08T06:12:13;13.70;98.50
4635;DHT22;2330;48.158;11.816;2023-08-08T06:14:40;13.80;98.50
4635;DHT22;2330;48.158;11.816;2023-08-08T06:17:06;14.00;98.50
4635;DHT22;2330;48.158;11.816;2023-08-08T06:19:33;14.10;98.50
4635;DHT22;2330;48.158;11.816;2023-08-08T06:22:00;14.40;98.50
4635;DHT22;2330;48.158;11.816;2023-08-08T06:24:27;14.90;98.50
4635;DHT22;2330;48.158;11.816;2023-08-08T06:26:54;15.20;98.50
4635;DHT22;2330;48.158;11.816;2023-08-08T06:29:21;15.50;98.50
4635;DHT22;2330;48.158;11.816;2023-08-08T06:31:48;15.70;98.50
4635;DHT22;2330;48.158;11.816;2023-08-08T06:34:15;15.90;98.50
4635;DHT22;2330;48.158;11.816;2023-08-08T06:36:41;16.20;97.60
4635;DHT22;2330;48.158;11.816;2023-08-08T06:39:08;16.50;96.90
4635;DHT22;2330;48.158;11.816;2023-08-08T06:41:35;16.70;96.10
4635;DHT22;2330;48.158;11.816;2023-08-08T06:44:02;16.80;94.70
4635;DHT22;2330;48.158;11.816;2023-08-08T06:46:29;17.00;94.30
4635;DHT22;2330;48.158;11.816;2023-08-08T06:48:56;17.10;93.80
4635;DHT22;2330;48.158;11.816;2023-08-08T06:51:25;17.30;93.90
4635;DHT22;2330;48.158;11.816;2023-08-08T06:53:52;17.50;92.60
4635;DHT22;2330;48.158;11.816;2023-08-08T06:56:19;17.70;91.60
4635;DHT22;2330;48.158;11.816;2023-08-08T06:58:46;17.70;91.30
4635;DHT22;2330;48.158;11.816;2023-08-08T07:01:13;17.80;90.90
4635;DHT22;2330;48.158;11.816;2023-08-08T07:03:40;17.80;91.10
4635;DHT22;2330;48.158;11.816;2023-08-08T07:06:07;17.90;90.30
4635;DHT22;2330;48.158;11.816;2023-08-08T07:08:34;18.00;90.30
4635;DHT22;2330;48.158;11.816;2023-08-08T07:11:01;18.10;90.10
4635;DHT22;2330;48.158;11.816;2023-08-08T07:13:28;18.20;90.30
4635;DHT22;2330;48.158;11.816;2023-08-08T07:15:55;18.40;90.10
4635;DHT22;2330;48.158;11.816;2023-08-08T07:18:22;18.70;89.80
4635;DHT22;2330;48.158;11.816;2023-08-08T07:20:49;18.70;89.20
4635;DHT22;2330;48.158;11.816;2023-08-08T07:23:16;18.80;89.50
4635;DHT22;2330;48.158;11.816;2023-08-08T07:25:43;18.90;89.20
4635;DHT22;2330;48.158;11.816;2023-08-08T07:28:10;18.70;88.50
4635;DHT22;2330;48.158;11.816;2023-08-08T07:30:37;18.70;89.70
4635;DHT22;2330;48.158;11.816;2023-08-08T07:33:03;18.80;89.00
4635;DHT22;2330;48.158;11.816;2023-08-08T07:35:32;18.90;88.20
4635;DHT22;2330;48.158;11.816;2023-08-08T07:37:59;18.90;88.30
4635;DHT22;2330;48.158;11.816;2023-08-08T07:40:26;18.90;87.10
4635;DHT22;2330;48.158;11.816;2023-08-08T07:42:53;18.90;87.60
4635;DHT22;2330;48.158;11.816;2023-08-08T07:45:20;19.00;88.50
4635;DHT22;2330;48.158;11.816;2023-08-08T07:47:47;19.00;88.10
4635;DHT22;2330;48.158;11.816;2023-08-08T07:50:14;19.20;87.60
4635;DHT22;2330;48.158;11.816;2023-08-08T07:52:41;19.20;88.00
4635;DHT22;2330;48.158;11.816;2023-08-08T07:55:08;19.30;87.10
4635;DHT22;2330;48.158;11.816;2023-08-08T07:57:35;19.20;87.50
4635;DHT22;2330;48.158;11.816;2023-08-08T08:00:03;19.20;87.60
4635;DHT22;2330;48.158;11.816;2023-08-08T08:02:43;19.20;87.40
4635;DHT22;2330;48.158;11.816;2023-08-08T08:05:11;19.10;87.00
4635;DHT22;2330;48.158;11.816;2023-08-08T08:07:38;19.40;88.30
4635;DHT22;2330;48.158;11.816;2023-08-08T08:10:07;19.70;86.80
4635;DHT22;2330;48.158;11.816;2023-08-08T08:12:36;19.80;85.90
4635;DHT22;2330;48.158;11.816;2023-08-08T08:15:03;20.10;85.20
4635;DHT22;2330;48.158;11.816;2023-08-08T08:17:31;20.30;85.50
4635;DHT22;2330;48.158;11.816;2023-08-08T08:19:58;20.50;84.90
4635;DHT22;2330;48.158;11.816;2023-08-08T08:22:25;20.40;84.40
4635;DHT22;2330;48.158;11.816;2023-08-08T08:24:52;20.40;84.50
4635;DHT22;2330;48.158;11.816;2023-08-08T08:27:18;20.40;84.50
4635;DHT22;2330;48.158;11.816;2023-08-08T08:29:45;20.40;83.60
4635;DHT22;2330;48.158;11.816;2023-08-08T08:32:12;20.30;84.60
4635;DHT22;2330;48.158;11.816;2023-08-08T08:34:38;20.50;85.20
4635;DHT22;2330;48.158;11.816;2023-08-08T08:37:05;20.70;83.10
4635;DHT22;2330;48.158;11.816;2023-08-08T08:39:32;20.90;83.80
4635;DHT22;2330;48.158;11.816;2023-08-08T08:42:00;20.90;82.50
4635;DHT22;2330;48.158;11.816;2023-08-08T08:44:31;20.80;83.50
4635;DHT22;2330;48.158;11.816;2023-08-08T08:47:02;21.00;81.80
4635;DHT22;2330;48.158;11.816;2023-08-08T08:49:31;20.90;81.00
4635;DHT22;2330;48.158;11.816;2023-08-08T08:51:59;21.00;82.10
4635;DHT22;2330;48.158;11.816;2023-08-08T08:54:29;21.20;80.50
4635;DHT22;2330;48.158;11.816;2023-08-08T08:56:57;21.20;81.20
4635;DHT22;2330;48.158;11.816;2023-08-08T08:59:24;21.30;80.60
4635;DHT22;2330;48.158;11.816;2023-08-08T09:01:51;21.30;80.90
4635;DHT22;2330;48.158;11.816;2023-08-08T09:04:20;21.30;81.50
4635;DHT22;2330;48.158;11.816;2023-08-08T09:06:49;21.20;81.10
4635;DHT22;2330;48.158;11.816;2023-08-08T09:09:17;20.90;80.10
4635;DHT22;2330;48.158;11.816;2023-08-08T09:11:51;20.50;80.20
4635;DHT22;2330;48.158;11.816;2023-08-08T09:14:22;20.50;81.10
4635;DHT22;2330;48.158;11.816;2023-08-08T09:16:50;21.00;81.80
4635;DHT22;2330;48.158;11.816;2023-08-08T09:19:21;20.90;80.20
4635;DHT22;2330;48.158;11.816;2023-08-08T09:21:48;20.90;80.20
4635;DHT22;2330;48.158;11.816;2023-08-08T09:24:15;20.90;81.50
4635;DHT22;2330;48.158;11.816;2023-08-08T09:26:43;21.10;80.80
4635;DHT22;2330;48.158;11.816;2023-08-08T09:29:12;21.40;81.00
4635;DHT22;2330;48.158;11.816;2023-08-08T09:31:39;21.40;80.40
4635;DHT22;2330;48.158;11.816;2023-08-08T09:34:06;21.20;80.50
4635;DHT22;2330;48.158;11.816;2023-08-08T09:36:33;21.50;79.90
4635;DHT22;2330;48.158;11.816;2023-08-08T09:39:02;21.90;78.40
4635;DHT22;2330;48.158;11.816;2023-08-08T09:41:29;22.00;78.00
4635;DHT22;2330;48.158;11.816;2023-08-08T09:43:59;21.70;77.50
4635;DHT22;2330;48.158;11.816;2023-08-08T09:46:26;21.30;78.60
4635;DHT22;2330;48.158;11.816;2023-08-08T09:48:55;21.60;78.60
4635;DHT22;2330;48.158;11.816;2023-08-08T09:51:23;21.80;78.30
4635;DHT22;2330;48.158;11.816;2023-08-08T09:53:50;21.60;78.30
4635;DHT22;2330;48.158;11.816;2023-08-08T09:56:18;21.30;78.80
4635;DHT22;2330;48.158;11.816;2023-08-08T09:58:46;21.20;76.90
4635;DHT22;2330;48.158;11.816;2023-08-08T10:01:14;21.20;78.30
4635;DHT22;2330;48.158;11.816;2023-08-08T10:03:42;21.30;80.20
4635;DHT22;2330;48.158;11.816;2023-08-08T10:06:14;21.50;80.80
4635;DHT22;2330;48.158;11.816;2023-08-08T10:08:40;21.70;79.40
4635;DHT22;2330;48.158;11.816;2023-08-08T10:11:08;21.50;77.60
4635;DHT22;2330;48.158;11.816;2023-08-08T10:13:36;21.50;77.60
4635;DHT22;2330;48.158;11.816;2023-08-08T10:16:09;21.50;78.00
4635;DHT22;2330;48.158;11.816;2023-08-08T10:18:36;21.90;79.60
4635;DHT22;2330;48.158;11.816;2023-08-08T10:21:06;22.30;77.40
4635;DHT22;2330;48.158;11.816;2023-08-08T10:23:37;21.90;75.30
4635;DHT22;2330;48.158;11.816;2023-08-08T10:26:05;22.00;76.60
4635;DHT22;2330;48.158;11.816;2023-08-08T10:28:32;22.00;75.70
4635;DHT22;2330;48.158;11.816;2023-08-08T10:31:00;22.10;76.30
4635;DHT22;2330;48.158;11.816;2023-08-08T10:33:42;22.30;76.50
4635;DHT22;2330;48.158;11.816;2023-08-08T10:36:10;22.40;77.30
4635;DHT22;2330;48.158;11.816;2023-08-08T10:38:50;22.30;77.70
4635;DHT22;2330;48.158;11.816;2023-08-08T10:41:20;22.40;77.50
4635;DHT22;2330;48.158;11.816;2023-08-08T10:43:50;22.40;74.20
4635;DHT22;2330;48.158;11.816;2023-08-08T10:46:29;22.30;75.30
4635;DHT22;2330;48.158;11.816;2023-08-08T10:48:58;22.20;76.90
4635;DHT22;2330;48.158;11.816;2023-08-08T10:51:37;22.20;77.20
4635;DHT22;2330;48.158;11.816;2023-08-08T10:54:22;22.10;76.70
4635;DHT22;2330;48.158;11.816;2023-08-08T10:56:51;22.30;76.10
4635;DHT22;2330;48.158;11.816;2023-08-08T10:59:21;22.40;74.90
4635;DHT22;2330;48.158;11.816;2023-08-08T11:01:51;22.40;73.50
4635;DHT22;2330;48.158;11.816;2023-08-08T11:04:20;22.60;73.50
4635;DHT22;2330;48.158;11.816;2023-08-08T11:06:48;22.70;74.00
4635;DHT22;2330;48.158;11.816;2023-08-08T11:09:17;22.70;72.30
4635;DHT22;2330;48.158;11.816;2023-08-08T11:11:45;22.60;71.40
4635;DHT22;2330;48.158;11.816;2023-08-08T11:14:14;22.50;71.30
4635;DHT22;2330;48.158;11.816;2023-08-08T11:16:42;22.40;72.80
4635;DHT22;2330;48.158;11.816;2023-08-08T11:19:10;22.40;73.90
4635;DHT22;2330;48.158;11.816;2023-08-08T11:21:40;22.50;73.90
4635;DHT22;2330;48.158;11.816;2023-08-08T11:24:08;22.70;73.50
4635;DHT22;2330;48.158;11.816;2023-08-08T11:26:36;22.50;72.60
4635;DHT22;2330;48.158;11.816;2023-08-08T11:29:04;22.60;73.20
4635;DHT22;2330;48.158;11.816;2023-08-08T11:31:33;22.50;73.10
4635;DHT22;2330;48.158;11.816;2023-08-08T11:34:01;22.60;73.20
4635;DHT22;2330;48.158;11.816;2023-08-08T11:36:34;22.40;73.10
4635;DHT22;2330;48.158;11.816;2023-08-08T11:39:03;22.60;74.30
4635;DHT22;2330;48.158;11.816;2023-08-08T11:41:35;22.80;74.40
4635;DHT22;2330;48.158;11.816;2023-08-08T11:44:03;23.20;72.70
4635;DHT22;2330;48.158;11.816;2023-08-08T11:46:31;23.50;72.00
4635;DHT22;2330;48.158;11.816;2023-08-08T11:49:05;23.50;72.40
4635;DHT22;2330;48.158;11.816;2023-08-08T11:51:34;23.10;70.70
4635;DHT22;2330;48.158;11.816;2023-08-08T11:54:02;23.20;71.90
4635;DHT22;2330;48.158;11.816;2023-08-08T11:56:33;23.40;69.90
4635;DHT22;2330;48.158;11.816;2023-08-08T11:59:01;23.00;70.80
4635;DHT22;2330;48.158;11.816;2023-08-08T12:01:31;23.00;70.90
4635;DHT22;2330;48.158;11.816;2023-08-08T12:03:58;22.80;70.70
4635;DHT22;2330;48.158;11.816;2023-08-08T12:06:28;22.90;73.00
4635;DHT22;2330;48.158;11.816;2023-08-08T12:08:56;23.20;71.50
4635;DHT22;2330;48.158;11.816;2023-08-08T12:11:23;23.40;70.30
4635;DHT22;2330;48.158;11.816;2023-08-08T12:13:59;24.00;70.40
4635;DHT22;2330;48.158;11.816;2023-08-08T12:16:30;24.10;68.50
4635;DHT22;2330;48.158;11.816;2023-08-08T12:19:08;23.80;70.50
4635;DHT22;2330;48.158;11.816;2023-08-08T12:21:38;23.30;69.50
4635;DHT22;2330;48.158;11.816;2023-08-08T12:24:05;22.60;70.10
4635;DHT22;2330;48.158;11.816;2023-08-08T12:26:32;22.60;71.50
4635;DHT22;2330;48.158;11.816;2023-08-08T12:28:59;22.70;70.00
4635;DHT22;2330;48.158;11.816;2023-08-08T12:31:25;22.30;69.20
4635;DHT22;2330;48.158;11.816;2023-08-08T12:33:52;22.30;69.80
4635;DHT22;2330;48.158;11.816;2023-08-08T12:36:21;22.70;70.60
4635;DHT22;2330;48.158;11.816;2023-08-08T12:38:48;23.20;69.00
4635;DHT22;2330;48.158;11.816;2023-08-08T12:41:14;23.50;67.90
4635;DHT22;2330;48.158;11.816;2023-08-08T12:43:41;23.80;67.00
4635;DHT22;2330;48.158;11.816;2023-08-08T12:46:08;24.20;66.90
4635;DHT22;2330;48.158;11.816;2023-08-08T12:48:35;24.50;66.70
4635;DHT22;2330;48.158;11.816;2023-08-08T12:51:02;24.50;65.90
4635;DHT22;2330;48.158;11.816;2023-08-08T12:53:30;24.20;65.30
4635;DHT22;2330;48.158;11.816;2023-08-08T12:55:56;24.10;66.20
4635;DHT22;2330;48.158;11.816;2023-08-08T12:58:23;24.40;66.10
4635;DHT22;2330;48.158;11.816;2023-08-08T13:00:52;24.10;64.90
4635;DHT22;2330;48.158;11.816;2023-08-08T13:03:19;23.60;66.60
4635;DHT22;2330;48.158;11.816;2023-08-08T13:05:47;23.70;67.30
4635;DHT22;2330;48.158;11.816;2023-08-08T13:08:14;23.50;66.60
4635;DHT22;2330;48.158;11.816;2023-08-08T13:10:41;23.30;66.80
4635;DHT22;2330;48.158;11.816;2023-08-08T13:13:08;23.60;67.00
4635;DHT22;2330;48.158;11.816;2023-08-08T13:15:35;23.80;66.90
4635;DHT22;2330;48.158;11.816;2023-08-08T13:18:02;24.10;65.90
4635;DHT22;2330;48.158;11.816;2023-08-08T13:20:28;23.90;66.30
4635;DHT22;2330;48.158;11.816;2023-08-08T13:22:55;23.90;66.20
4635;DHT22;2330;48.158;11.816;2023-08-08T13:25:22;23.90;65.00
4635;DHT22;2330;48.158;11.816;2023-08-08T13:27:49;23.60;65.80
4635;DHT22;2330;48.158;11.816;2023-08-08T13:30:16;23.90;66.80
4635;DHT22;2330;48.158;11.816;2023-08-08T13:32:43;23.90;65.90
4635;DHT22;2330;48.158;11.816;2023-08-08T13:35:10;23.90;67.60
4635;DHT22;2330;48.158;11.816;2023-08-08T13:37:37;24.30;66.70
4635;DHT22;2330;48.158;11.816;2023-08-08T13:40:04;24.60;65.50
4635;DHT22;2330;48.158;11.816;2023-08-08T13:42:30;24.60;64.70
4635;DHT22;2330;48.158;11.816;2023-08-08T13:44:57;24.50;64.90
4635;DHT22;2330;48.158;11.816;2023-08-08T13:47:24;24.40;65.30
4635;DHT22;2330;48.158;11.816;2023-08-08T13:49:51;24.40;65.70
4635;DHT22;2330;48.158;11.816;2023-08-08T13:52:19;24.50;66.00
4635;DHT22;2330;48.158;11.816;2023-08-08T13:54:46;24.60;66.30
4635;DHT22;2330;48.158;11.816;2023-08-08T13:57:12;25.00;64.80
4635;DHT22;2330;48.158;11.816;2023-08-08T13:59:42;25.30;64.60
4635;DHT22;2330;48.158;11.816;2023-08-08T14:02:09;25.30;64.70
4635;DHT22;2330;48.158;11.816;2023-08-08T14:04:36;25.30;65.40
4635;DHT22;2330;48.158;11.816;2023-08-08T14:07:03;25.30;64.60
4635;DHT22;2330;48.158;11.816;2023-08-08T14:09:30;25.30;64.10
4635;DHT22;2330;48.158;11.816;2023-08-08T14:11:56;25.00;64.00
4635;DHT22;2330;48.158;11.816;2023-08-08T14:14:26;25.10;64.10
4635;DHT22;2330;48.158;11.816;2023-08-08T14:16:52;25.30;64.10
4635;DHT22;2330;48.158;11.816;2023-08-08T14:19:21;25.40;65.40
4635;DHT22;2330;48.158;11.816;2023-08-08T14:21:48;25.20;65.50
4635;DHT22;2330;48.158;11.816;2023-08-08T14:24:15;25.10;66.30
4635;DHT22;2330;48.158;11.816;2023-08-08T14:26:42;25.30;65.30
4635;DHT22;2330;48.158;11.816;2023-08-08T14:29:09;25.20;63.70
4635;DHT22;2330;48.158;11.816;2023-08-08T14:31:35;24.90;65.80
4635;DHT22;2330;48.158;11.816;2023-08-08T14:34:30;24.60;64.70
4635;DHT22;2330;48.158;11.816;2023-08-08T14:36:58;25.00;64.90
4635;DHT22;2330;48.158;11.816;2023-08-08T14:39:25;25.10;64.40
4635;DHT22;2330;48.158;11.816;2023-08-08T14:41:52;24.90;64.00
4635;DHT22;2330;48.158;11.816;2023-08-08T14:44:19;25.10;64.30
4635;DHT22;2330;48.158;11.816;2023-08-08T14:46:46;25.00;64.60
4635;DHT22;2330;48.158;11.816;2023-08-08T14:49:13;25.30;64.90
4635;DHT22;2330;48.158;11.816;2023-08-08T14:51:40;25.00;65.60
4635;DHT22;2330;48.158;11.816;2023-08-08T14:54:06;24.50;66.80
4635;DHT22;2330;48.158;11.816;2023-08-08T14:56:33;24.40;66.40
4635;DHT22;2330;48.158;11.816;2023-08-08T14:59:01;24.30;66.40
4635;DHT22;2330;48.158;11.816;2023-08-08T15:01:27;24.20;66.50
4635;DHT22;2330;48.158;11.816;2023-08-08T15:03:57;24.10;65.80
4635;DHT22;2330;48.158;11.816;2023-08-08T15:06:24;24.00;66.90
4635;DHT22;2330;48.158;11.816;2023-08-08T15:08:51;24.00;67.80
4635;DHT22;2330;48.158;11.816;2023-08-08T15:11:18;24.00;67.80
4635;DHT22;2330;48.158;11.816;2023-08-08T15:13:45;24.00;68.10
4635;DHT22;2330;48.158;11.816;2023-08-08T15:16:11;23.70;69.00
4635;DHT22;2330;48.158;11.816;2023-08-08T15:18:38;23.70;68.70
4635;DHT22;2330;48.158;11.816;2023-08-08T15:21:05;23.70;68.30
4635;DHT22;2330;48.158;11.816;2023-08-08T15:23:32;23.40;68.60
4635;DHT22;2330;48.158;11.816;2023-08-08T15:26:00;23.20;68.40
4635;DHT22;2330;48.158;11.816;2023-08-08T15:28:26;23.30;68.70
4635;DHT22;2330;48.158;11.816;2023-08-08T15:30:53;23.30;69.30
4635;DHT22;2330;48.158;11.816;2023-08-08T15:33:20;23.30;68.90
4635;DHT22;2330;48.158;11.816;2023-08-08T15:35:47;23.40;69.40
4635;DHT22;2330;48.158;11.816;2023-08-08T15:38:14;23.50;69.00
4635;DHT22;2330;48.158;11.816;2023-08-08T15:40:41;23.60;69.10
4635;DHT22;2330;48.158;11.816;2023-08-08T15:43:08;23.40;69.20
4635;DHT22;2330;48.158;11.816;2023-08-08T15:45:35;23.30;69.90
4635;DHT22;2330;48.158;11.816;2023-08-08T15:48:02;23.10;70.70